sensor_id;sensor_type;location;lat;lon;timestamp;pressure;altitude;pressure_sealevel;temperature
49593;BMP280;35499;51.482;4.264;2023-03-19T00:00:04;101062.69;;;11.19
49593;BMP280;35499;51.482;4.264;2023-03-19T00:02:32;101061.91;;;11.12
49593;BMP280;35499;51.482;4.264;2023-03-19T00:04:57;101065.38;;;11.07
49593;BMP280;35499;51.482;4.264;2023-03-19T00:07:22;101069.75;;;11.02
49593;BMP280;35499;51.482;4.264;2023-03-19T00:09:48;101066.38;;;10.97
49593;BMP280;35499;51.482;4.264;2023-03-19T00:12:13;101080.13;;;10.93
49593;BMP280;35499;51.482;4.264;2023-03-19T00:14:38;101074.22;;;10.87
49593;BMP280;35499;51.482;4.264;2023-03-19T00:17:03;101080.25;;;10.83
49593;BMP280;35499;51.482;4.264;2023-03-19T00:19:29;101080.31;;;10.79
49593;BMP280;35499;51.482;4.264;2023-03-19T00:21:54;101082.91;;;10.76
49593;BMP280;35499;51.482;4.264;2023-03-19T00:24:20;101083.84;;;10.71
49593;BMP280;35499;51.482;4.264;2023-03-19T00:26:46;101082.13;;;10.68
49593;BMP280;35499;51.482;4.264;2023-03-19T00:29:12;101084.75;;;10.64
49593;BMP280;35499;51.482;4.264;2023-03-19T00:31:37;101092.53;;;10.59
49593;BMP280;35499;51.482;4.264;2023-03-19T00:34:04;101089.09;;;10.56
49593;BMP280;35499;51.482;4.264;2023-03-19T00:36:30;101088.31;;;10.53
49593;BMP280;35499;51.482;4.264;2023-03-19T00:38:55;101085.78;;;10.50
49593;BMP280;35499;51.482;4.264;2023-03-19T00:41:21;101084.13;;;10.46
49593;BMP280;35499;51.482;4.264;2023-03-19T00:43:51;101092.69;;;10.43
49593;BMP280;35499;51.482;4.264;2023-03-19T00:46:16;101087.59;;;10.39
49593;BMP280;35499;51.482;4.264;2023-03-19T00:48:42;101085.94;;;10.35
49593;BMP280;35499;51.482;4.264;2023-03-19T00:51:08;101085.94;;;10.34
49593;BMP280;35499;51.482;4.264;2023-03-19T00:53:39;101091.06;;;10.32
49593;BMP280;35499;51.482;4.264;2023-03-19T00:56:05;101091.09;;;10.29
49593;BMP280;35499;51.482;4.264;2023-03-19T00:58:31;101095.38;;;10.29
49593;BMP280;35499;51.482;4.264;2023-03-19T01:00:56;101103.94;;;10.26
49593;BMP280;35499;51.482;4.264;2023-03-19T01:03:22;101094.56;;;10.25
49593;BMP280;35499;51.482;4.264;2023-03-19T01:05:48;101100.56;;;10.24
49593;BMP280;35499;51.482;4.264;2023-03-19T01:08:15;101104.00;;;10.25
49593;BMP280;35499;51.482;4.264;2023-03-19T01:10:40;101100.56;;;10.23
49593;BMP280;35499;51.482;4.264;2023-03-19T01:13:06;101110.03;;;10.19
49593;BMP280;35499;51.482;4.264;2023-03-19T01:15:37;101106.59;;;10.18
49593;BMP280;35499;51.482;4.264;2023-03-19T01:18:03;101103.22;;;10.14
49593;BMP280;35499;51.482;4.264;2023-03-19T01:20:28;101106.66;;;10.13
49593;BMP280;35499;51.482;4.264;2023-03-19T01:22:53;101108.41;;;10.10
49593;BMP280;35499;51.482;4.264;2023-03-19T01:25:19;101105.84;;;10.07
49593;BMP280;35499;51.482;4.264;2023-03-19T01:27:44;101109.28;;;10.03
49593;BMP280;35499;51.482;4.264;2023-03-19T01:30:10;101115.31;;;10.01
49593;BMP280;35499;51.482;4.264;2023-03-19T01:32:36;101123.88;;;9.98
49593;BMP280;35499;51.482;4.264;2023-03-19T01:35:01;101128.16;;;9.98
49593;BMP280;35499;51.482;4.264;2023-03-19T01:37:26;101120.50;;;9.96
49593;BMP280;35499;51.482;4.264;2023-03-19T01:39:52;101120.50;;;9.96
49593;BMP280;35499;51.482;4.264;2023-03-19T01:42:17;101121.34;;;9.94
49593;BMP280;35499;51.482;4.264;2023-03-19T01:44:42;101114.50;;;9.91
49593;BMP280;35499;51.482;4.264;2023-03-19T01:47:18;101116.25;;;9.89
49593;BMP280;35499;51.482;4.264;2023-03-19T01:49:46;101126.50;;;9.89
49593;BMP280;35499;51.482;4.264;2023-03-19T01:52:15;101125.66;;;9.87
49593;BMP280;35499;51.482;4.264;2023-03-19T01:54:40;101128.22;;;9.87
49593;BMP280;35499;51.482;4.264;2023-03-19T01:57:09;101119.69;;;9.84
49593;BMP280;35499;51.482;4.264;2023-03-19T01:59:37;101125.69;;;9.82
49593;BMP280;35499;51.482;4.264;2023-03-19T02:02:15;101122.31;;;9.77
49593;BMP280;35499;51.482;4.264;2023-03-19T02:04:43;101122.31;;;9.74
49593;BMP280;35499;51.482;4.264;2023-03-19T02:07:10;101125.75;;;9.70
49593;BMP280;35499;51.482;4.264;2023-03-19T02:09:38;101132.59;;;9.68
49593;BMP280;35499;51.482;4.264;2023-03-19T02:12:05;101139.47;;;9.63
49593;BMP280;35499;51.482;4.264;2023-03-19T02:14:31;101122.41;;;9.59
49593;BMP280;35499;51.482;4.264;2023-03-19T02:16:56;101137.78;;;9.59
49593;BMP280;35499;51.482;4.264;2023-03-19T02:19:30;101116.41;;;9.59
49593;BMP280;35499;51.482;4.264;2023-03-19T02:21:59;101121.56;;;9.56
49593;BMP280;35499;51.482;4.264;2023-03-19T02:24:29;101125.00;;;9.52
49593;BMP280;35499;51.482;4.264;2023-03-19T02:26:56;101124.16;;;9.48
49593;BMP280;35499;51.482;4.264;2023-03-19T02:29:22;101128.44;;;9.47
49593;BMP280;35499;51.482;4.264;2023-03-19T02:31:47;101131.03;;;9.45
49593;BMP280;35499;51.482;4.264;2023-03-19T02:36:52;101139.59;;;9.40
49593;BMP280;35499;51.482;4.264;2023-03-19T02:39:23;101125.94;;;9.39
49593;BMP280;35499;51.482;4.264;2023-03-19T02:41:52;101122.53;;;9.36
49593;BMP280;35499;51.482;4.264;2023-03-19T02:44:18;101127.66;;;9.33
49593;BMP280;35499;51.482;4.264;2023-03-19T02:46:44;101134.53;;;9.31
49593;BMP280;35499;51.482;4.264;2023-03-19T02:49:09;101136.22;;;9.29
49593;BMP280;35499;51.482;4.264;2023-03-19T02:51:35;101131.13;;;9.26
49593;BMP280;35499;51.482;4.264;2023-03-19T02:54:02;101135.38;;;9.23
49593;BMP280;35499;51.482;4.264;2023-03-19T02:56:27;101135.41;;;9.20
49593;BMP280;35499;51.482;4.264;2023-03-19T02:58:52;101132.00;;;9.18
49593;BMP280;35499;51.482;4.264;2023-03-19T03:01:18;101126.03;;;9.17
49593;BMP280;35499;51.482;4.264;2023-03-19T03:03:43;101134.59;;;9.16
49593;BMP280;35499;51.482;4.264;2023-03-19T03:06:08;101138.00;;;9.14
49593;BMP280;35499;51.482;4.264;2023-03-19T03:08:34;101132.88;;;9.12
49593;BMP280;35499;51.482;4.264;2023-03-19T03:11:00;101131.16;;;9.11
49593;BMP280;35499;51.482;4.264;2023-03-19T03:13:26;101129.47;;;9.11
49593;BMP280;35499;51.482;4.264;2023-03-19T03:15:52;101135.47;;;9.10
49593;BMP280;35499;51.482;4.264;2023-03-19T03:18:17;101131.19;;;9.09
49593;BMP280;35499;51.482;4.264;2023-03-19T03:20:43;101139.72;;;9.08
49593;BMP280;35499;51.482;4.264;2023-03-19T03:23:09;101138.03;;;9.05
49593;BMP280;35499;51.482;4.264;2023-03-19T03:25:35;101134.63;;;9.03
49593;BMP280;35499;51.482;4.264;2023-03-19T03:28:00;101138.91;;;9.00
49593;BMP280;35499;51.482;4.264;2023-03-19T03:30:26;101138.06;;;8.96
49593;BMP280;35499;51.482;4.264;2023-03-19T03:32:51;101137.22;;;8.93
49593;BMP280;35499;51.482;4.264;2023-03-19T03:35:17;101135.50;;;8.92
49593;BMP280;35499;51.482;4.264;2023-03-19T03:37:46;101127.00;;;8.86
49593;BMP280;35499;51.482;4.264;2023-03-19T03:40:12;101128.72;;;8.84
49593;BMP280;35499;51.482;4.264;2023-03-19T03:42:38;101137.25;;;8.81
49593;BMP280;35499;51.482;4.264;2023-03-19T03:45:04;101133.84;;;8.79
49593;BMP280;35499;51.482;4.264;2023-03-19T03:47:29;101138.09;;;8.77
49593;BMP280;35499;51.482;4.264;2023-03-19T03:49:54;101137.25;;;8.77
49593;BMP280;35499;51.482;4.264;2023-03-19T03:52:20;101138.09;;;8.77
49593;BMP280;35499;51.482;4.264;2023-03-19T03:54:45;101138.13;;;8.80
49593;BMP280;35499;51.482;4.264;2023-03-19T03:57:10;101141.53;;;8.85
49593;BMP280;35499;51.482;4.264;2023-03-19T03:59:36;101139.78;;;8.90
49593;BMP280;35499;51.482;4.264;2023-03-19T04:02:01;101137.22;;;8.94
49593;BMP280;35499;51.482;4.264;2023-03-19T04:04:27;101144.88;;;8.99
49593;BMP280;35499;51.482;4.264;2023-03-19T04:06:53;101144.88;;;9.05
49593;BMP280;35499;51.482;4.264;2023-03-19T04:09:19;101138.00;;;9.08
49593;BMP280;35499;51.482;4.264;2023-03-19T04:11:44;101138.00;;;9.12
49593;BMP280;35499;51.482;4.264;2023-03-19T04:14:09;101144.84;;;9.15
49593;BMP280;35499;51.482;4.264;2023-03-19T04:16:36;101143.09;;;9.18
49593;BMP280;35499;51.482;4.264;2023-03-19T04:19:02;101149.06;;;9.22
49593;BMP280;35499;51.482;4.264;2023-03-19T04:21:27;101148.22;;;9.24
49593;BMP280;35499;51.482;4.264;2023-03-19T04:23:53;101148.19;;;9.27
49593;BMP280;35499;51.482;4.264;2023-03-19T04:26:19;101150.75;;;9.29
49593;BMP280;35499;51.482;4.264;2023-03-19T04:28:44;101148.16;;;9.31
49593;BMP280;35499;51.482;4.264;2023-03-19T04:31:09;101155.84;;;9.31
49593;BMP280;35499;51.482;4.264;2023-03-19T04:33:35;101161.81;;;9.32
49593;BMP280;35499;51.482;4.264;2023-03-19T04:36:01;101155.03;;;9.31
49593;BMP280;35499;51.482;4.264;2023-03-19T04:38:27;101161.00;;;9.30
49593;BMP280;35499;51.482;4.264;2023-03-19T04:40:53;101163.56;;;9.27
49593;BMP280;35499;51.482;4.264;2023-03-19T04:43:20;101155.91;;;9.24
49593;BMP280;35499;51.482;4.264;2023-03-19T04:45:46;101161.88;;;9.23
49593;BMP280;35499;51.482;4.264;2023-03-19T04:48:11;101151.66;;;9.20
49593;BMP280;35499;51.482;4.264;2023-03-19T04:50:37;101161.03;;;9.18
49593;BMP280;35499;51.482;4.264;2023-03-19T04:53:02;101167.03;;;9.14
49593;BMP280;35499;51.482;4.264;2023-03-19T04:55:28;101176.44;;;9.12
49593;BMP280;35499;51.482;4.264;2023-03-19T04:57:53;101180.72;;;9.11
49593;BMP280;35499;51.482;4.264;2023-03-19T05:00:19;101179.84;;;9.09
49593;BMP280;35499;51.482;4.264;2023-03-19T05:02:44;101184.97;;;9.09
49593;BMP280;35499;51.482;4.264;2023-03-19T05:05:10;101184.13;;;9.07
49593;BMP280;35499;51.482;4.264;2023-03-19T05:07:37;101195.25;;;9.06
49593;BMP280;35499;51.482;4.264;2023-03-19T05:10:03;101192.69;;;9.03
49593;BMP280;35499;51.482;4.264;2023-03-19T05:12:28;101196.09;;;9.02
49593;BMP280;35499;51.482;4.264;2023-03-19T05:14:54;101184.16;;;9.01
49593;BMP280;35499;51.482;4.264;2023-03-19T05:17:19;101189.28;;;8.98
49593;BMP280;35499;51.482;4.264;2023-03-19T05:19:44;101192.69;;;8.97
49593;BMP280;35499;51.482;4.264;2023-03-19T05:22:10;101190.97;;;8.97
49593;BMP280;35499;51.482;4.264;2023-03-19T05:24:36;101197.81;;;8.97
49593;BMP280;35499;51.482;4.264;2023-03-19T05:27:01;101206.38;;;8.96
49593;BMP280;35499;51.482;4.264;2023-03-19T05:29:26;101203.81;;;8.96
49593;BMP280;35499;51.482;4.264;2023-03-19T05:31:52;101203.81;;;8.96
49593;BMP280;35499;51.482;4.264;2023-03-19T05:34:17;101206.38;;;8.96
49593;BMP280;35499;51.482;4.264;2023-03-19T05:36:43;101210.66;;;8.95
49593;BMP280;35499;51.482;4.264;2023-03-19T05:39:08;101216.63;;;8.96
49593;BMP280;35499;51.482;4.264;2023-03-19T05:41:33;101217.47;;;8.96
49593;BMP280;35499;51.482;4.264;2023-03-19T05:43:59;101220.03;;;8.95
49593;BMP280;35499;51.482;4.264;2023-03-19T05:46:25;101214.91;;;8.95
49593;BMP280;35499;51.482;4.264;2023-03-19T05:48:50;101217.47;;;8.93
49593;BMP280;35499;51.482;4.264;2023-03-19T05:51:15;101215.75;;;8.94
49593;BMP280;35499;51.482;4.264;2023-03-19T05:53:41;101216.59;;;8.93
49593;BMP280;35499;51.482;4.264;2023-03-19T05:56:07;101222.56;;;8.92
49593;BMP280;35499;51.482;4.264;2023-03-19T05:58:32;101226.00;;;8.93
49593;BMP280;35499;51.482;4.264;2023-03-19T06:00:57;101240.50;;;8.92
49593;BMP280;35499;51.482;4.264;2023-03-19T06:03:23;101242.22;;;8.93
49593;BMP280;35499;51.482;4.264;2023-03-19T06:05:51;101237.97;;;8.96
49593;BMP280;35499;51.482;4.264;2023-03-19T06:08:16;101243.94;;;9.00
49593;BMP280;35499;51.482;4.264;2023-03-19T06:10:42;101249.03;;;9.04
49593;BMP280;35499;51.482;4.264;2023-03-19T06:13:07;101248.16;;;9.08
49593;BMP280;35499;51.482;4.264;2023-03-19T06:15:32;101246.47;;;9.10
49593;BMP280;35499;51.482;4.264;2023-03-19T06:17:58;101247.31;;;9.13
49593;BMP280;35499;51.482;4.264;2023-03-19T06:20:23;101248.19;;;9.15
49593;BMP280;35499;51.482;4.264;2023-03-19T06:22:48;101252.44;;;9.16
49593;BMP280;35499;51.482;4.264;2023-03-19T06:25:14;101250.72;;;9.21
49593;BMP280;35499;51.482;4.264;2023-03-19T06:27:40;101247.28;;;9.25
49593;BMP280;35499;51.482;4.264;2023-03-19T06:30:05;101256.69;;;9.30
49593;BMP280;35499;51.482;4.264;2023-03-19T06:32:31;101256.66;;;9.36
49593;BMP280;35499;51.482;4.264;2023-03-19T06:34:56;101264.31;;;9.42
49593;BMP280;35499;51.482;4.264;2023-03-19T06:37:22;101263.44;;;9.47
49593;BMP280;35499;51.482;4.264;2023-03-19T06:39:47;101262.56;;;9.51
49593;BMP280;35499;51.482;4.264;2023-03-19T06:42:13;101260.00;;;9.57
49593;BMP280;35499;51.482;4.264;2023-03-19T06:44:38;101259.13;;;9.64
49593;BMP280;35499;51.482;4.264;2023-03-19T06:47:04;101267.63;;;9.75
49593;BMP280;35499;51.482;4.264;2023-03-19T06:49:29;101270.19;;;9.85
49593;BMP280;35499;51.482;4.264;2023-03-19T06:51:54;101273.53;;;9.97
49593;BMP280;35499;51.482;4.264;2023-03-19T06:54:20;101276.03;;;10.07
49593;BMP280;35499;51.482;4.264;2023-03-19T06:56:45;101271.75;;;10.09
49593;BMP280;35499;51.482;4.264;2023-03-19T06:59:11;101278.63;;;10.03
49593;BMP280;35499;51.482;4.264;2023-03-19T07:01:39;101283.78;;;10.00
49593;BMP280;35499;51.482;4.264;2023-03-19T07:04:04;101289.81;;;9.96
49593;BMP280;35499;51.482;4.264;2023-03-19T07:06:30;101290.66;;;9.92
49593;BMP280;35499;51.482;4.264;2023-03-19T07:08:55;101289.81;;;9.90
49593;BMP280;35499;51.482;4.264;2023-03-19T07:11:21;101286.38;;;9.91
49593;BMP280;35499;51.482;4.264;2023-03-19T07:13:46;101288.94;;;9.93
49593;BMP280;35499;51.482;4.264;2023-03-19T07:16:11;101293.22;;;9.95
49593;BMP280;35499;51.482;4.264;2023-03-19T07:18:37;101295.75;;;9.97
49593;BMP280;35499;51.482;4.264;2023-03-19T07:21:02;101294.91;;;9.99
49593;BMP280;35499;51.482;4.264;2023-03-19T07:23:28;101300.91;;;10.01
49593;BMP280;35499;51.482;4.264;2023-03-19T07:25:53;101306.84;;;10.03
49593;BMP280;35499;51.482;4.264;2023-03-19T07:28:19;101299.16;;;10.06
49593;BMP280;35499;51.482;4.264;2023-03-19T07:30:44;101301.66;;;10.12
49593;BMP280;35499;51.482;4.264;2023-03-19T07:33:10;101307.63;;;10.18
49593;BMP280;35499;51.482;4.264;2023-03-19T07:35:35;101317.00;;;10.22
49593;BMP280;35499;51.482;4.264;2023-03-19T07:38:01;101306.75;;;10.25
49593;BMP280;35499;51.482;4.264;2023-03-19T07:40:27;101311.84;;;10.29
49593;BMP280;35499;51.482;4.264;2023-03-19T07:42:52;101304.94;;;10.38
49593;BMP280;35499;51.482;4.264;2023-03-19T07:45:17;101304.75;;;10.69
49593;BMP280;35499;51.482;4.264;2023-03-19T07:47:43;101313.03;;;11.03
49593;BMP280;35499;51.482;4.264;2023-03-19T07:50:09;101311.97;;;11.23
49593;BMP280;35499;51.482;4.264;2023-03-19T07:52:34;101309.75;;;11.73
49593;BMP280;35499;51.482;4.264;2023-03-19T07:55:00;101304.97;;;12.12
49593;BMP280;35499;51.482;4.264;2023-03-19T07:57:26;101314.84;;;12.45
49593;BMP280;35499;51.482;4.264;2023-03-19T07:59:51;101305.03;;;12.69
49593;BMP280;35499;51.482;4.264;2023-03-19T08:02:17;101303.78;;;12.95
49593;BMP280;35499;51.482;4.264;2023-03-19T08:04:42;101313.09;;;13.02
49593;BMP280;35499;51.482;4.264;2023-03-19T08:07:08;101318.13;;;13.09
49593;BMP280;35499;51.482;4.264;2023-03-19T08:09:35;101317.13;;;13.17
49593;BMP280;35499;51.482;4.264;2023-03-19T08:12:01;101321.59;;;13.06
49593;BMP280;35499;51.482;4.264;2023-03-19T08:14:26;101325.16;;;13.00
49593;BMP280;35499;51.482;4.264;2023-03-19T08:16:52;101320.00;;;13.00
49593;BMP280;35499;51.482;4.264;2023-03-19T08:19:17;101324.22;;;13.04
49593;BMP280;35499;51.482;4.264;2023-03-19T08:21:42;101325.00;;;13.08
49593;BMP280;35499;51.482;4.264;2023-03-19T08:24:08;101326.81;;;13.04
49593;BMP280;35499;51.482;4.264;2023-03-19T08:26:33;101332.09;;;12.96
49593;BMP280;35499;51.482;4.264;2023-03-19T08:28:59;101336.44;;;12.93
49593;BMP280;35499;51.482;4.264;2023-03-19T08:31:24;101340.69;;;12.95
49593;BMP280;35499;51.482;4.264;2023-03-19T08:33:50;101344.03;;;13.00
49593;BMP280;35499;51.482;4.264;2023-03-19T08:36:15;101344.91;;;13.01
49593;BMP280;35499;51.482;4.264;2023-03-19T08:38:41;101349.34;;;12.91
49593;BMP280;35499;51.482;4.264;2023-03-19T08:41:07;101350.28;;;12.86
49593;BMP280;35499;51.482;4.264;2023-03-19T08:43:34;101357.28;;;12.80
49593;BMP280;35499;51.482;4.264;2023-03-19T08:46:01;101358.31;;;12.69
49593;BMP280;35499;51.482;4.264;2023-03-19T08:48:26;101370.44;;;12.59
49593;BMP280;35499;51.482;4.264;2023-03-19T08:50:53;101363.66;;;12.51
49593;BMP280;35499;51.482;4.264;2023-03-19T08:53:19;101366.41;;;12.39
49593;BMP280;35499;51.482;4.264;2023-03-19T08:55:50;101369.09;;;12.31
49593;BMP280;35499;51.482;4.264;2023-03-19T08:58:15;101378.69;;;12.20
49593;BMP280;35499;51.482;4.264;2023-03-19T09:00:40;101385.59;;;12.18
49593;BMP280;35499;51.482;4.264;2023-03-19T09:03:06;101388.22;;;12.12
49593;BMP280;35499;51.482;4.264;2023-03-19T09:05:31;101385.75;;;12.02
49593;BMP280;35499;51.482;4.264;2023-03-19T09:07:56;101391.03;;;11.93
49593;BMP280;35499;51.482;4.264;2023-03-19T09:10:22;101385.94;;;11.89
49593;BMP280;35499;51.482;4.264;2023-03-19T09:12:47;101390.22;;;11.88
49593;BMP280;35499;51.482;4.264;2023-03-19T09:15:12;101394.50;;;11.88
49593;BMP280;35499;51.482;4.264;2023-03-19T09:17:38;101392.00;;;11.83
49593;BMP280;35499;51.482;4.264;2023-03-19T09:20:04;101394.56;;;11.80
49593;BMP280;35499;51.482;4.264;2023-03-19T09:22:31;101392.00;;;11.83
49593;BMP280;35499;51.482;4.264;2023-03-19T09:24:56;101398.81;;;11.87
49593;BMP280;35499;51.482;4.264;2023-03-19T09:27:22;101400.50;;;11.90
49593;BMP280;35499;51.482;4.264;2023-03-19T09:29:47;101399.59;;;11.94
49593;BMP280;35499;51.482;4.264;2023-03-19T09:32:12;101392.63;;;12.04
49593;BMP280;35499;51.482;4.264;2023-03-19T09:34:38;101401.94;;;12.13
49593;BMP280;35499;51.482;4.264;2023-03-19T09:37:03;101406.13;;;12.22
49593;BMP280;35499;51.482;4.264;2023-03-19T09:39:29;101409.44;;;12.32
49593;BMP280;35499;51.482;4.264;2023-03-19T09:44:57;101414.22;;;12.61
49593;BMP280;35499;51.482;4.264;2023-03-19T09:47:32;101414.94;;;12.73
49593;BMP280;35499;51.482;4.264;2023-03-19T09:50:19;101436.34;;;12.79
49593;BMP280;35499;51.482;4.264;2023-03-19T09:52:54;101434.63;;;12.78
49593;BMP280;35499;51.482;4.264;2023-03-19T09:55:51;101434.81;;;12.64
49593;BMP280;35499;51.482;4.264;2023-03-19T09:58:27;101447.03;;;12.47
49593;BMP280;35499;51.482;4.264;2023-03-19T10:04:59;101457.63;;;12.24
49593;BMP280;35499;51.482;4.264;2023-03-19T10:15:37;101464.56;;;12.16
49593;BMP280;35499;51.482;4.264;2023-03-19T10:18:22;101461.22;;;12.08
49593;BMP280;35499;51.482;4.264;2023-03-19T10:21:36;101468.19;;;11.98
49593;BMP280;35499;51.482;4.264;2023-03-19T10:24:13;101468.19;;;11.98
49593;BMP280;35499;51.482;4.264;2023-03-19T10:26:40;101461.38;;;11.92
49593;BMP280;35499;51.482;4.264;2023-03-19T10:29:10;101457.94;;;11.93
49593;BMP280;35499;51.482;4.264;2023-03-19T10:31:52;101467.28;;;12.01
49593;BMP280;35499;51.482;4.264;2023-03-19T10:34:27;101459.44;;;12.13
49593;BMP280;35499;51.482;4.264;2023-03-19T10:37:16;101462.59;;;12.35
49593;BMP280;35499;51.482;4.264;2023-03-19T10:39:44;101461.41;;;12.66
49593;BMP280;35499;51.482;4.264;2023-03-19T10:45:29;101452.91;;;14.61
49593;BMP280;35499;51.482;4.264;2023-03-19T10:47:56;101454.88;;;15.61
49593;BMP280;35499;51.482;4.264;2023-03-19T10:50:31;101442.63;;;16.33
49593;BMP280;35499;51.482;4.264;2023-03-19T10:53:27;101444.94;;;16.71
49593;BMP280;35499;51.482;4.264;2023-03-19T10:56:22;101449.84;;;16.80
49593;BMP280;35499;51.482;4.264;2023-03-19T10:59:18;101448.06;;;16.82
49593;BMP280;35499;51.482;4.264;2023-03-19T11:01:45;101457.09;;;16.69
49593;BMP280;35499;51.482;4.264;2023-03-19T11:04:13;101471.56;;;16.48
49593;BMP280;35499;51.482;4.264;2023-03-19T11:06:40;101478.25;;;16.25
49593;BMP280;35499;51.482;4.264;2023-03-19T11:11:45;101472.31;;;16.22
49593;BMP280;35499;51.482;4.264;2023-03-19T11:14:17;101476.53;;;16.26
49593;BMP280;35499;51.482;4.264;2023-03-19T11:16:57;101476.03;;;16.12
49593;BMP280;35499;51.482;4.264;2023-03-19T11:19:29;101483.44;;;15.93
49593;BMP280;35499;51.482;4.264;2023-03-19T11:24:35;101474.22;;;16.14
49593;BMP280;35499;51.482;4.264;2023-03-19T11:27:01;101478.50;;;16.48
49593;BMP280;35499;51.482;4.264;2023-03-19T11:29:27;101473.94;;;16.55
49593;BMP280;35499;51.482;4.264;2023-03-19T11:32:14;101480.38;;;16.72
49593;BMP280;35499;51.482;4.264;2023-03-19T11:34:57;101480.97;;;16.80
49593;BMP280;35499;51.482;4.264;2023-03-19T11:37:32;101486.13;;;16.82
49593;BMP280;35499;51.482;4.264;2023-03-19T11:40:24;101480.56;;;16.95
49593;BMP280;35499;51.482;4.264;2023-03-19T11:45:48;101482.69;;;16.81
49593;BMP280;35499;51.482;4.264;2023-03-19T11:48:43;101486.16;;;16.52
49593;BMP280;35499;51.482;4.264;2023-03-19T11:51:35;101486.81;;;16.29
49593;BMP280;35499;51.482;4.264;2023-03-19T11:56:42;101480.53;;;16.06
49593;BMP280;35499;51.482;4.264;2023-03-19T12:15:36;101460.97;;;18.62
49593;BMP280;35499;51.482;4.264;2023-03-19T12:26:44;101489.91;;;17.00
49593;BMP280;35499;51.482;4.264;2023-03-19T12:29:32;101496.59;;;16.49
49593;BMP280;35499;51.482;4.264;2023-03-19T12:34:38;101494.53;;;16.30
49593;BMP280;35499;51.482;4.264;2023-03-19T12:37:39;101501.00;;;16.14
49593;BMP280;35499;51.482;4.264;2023-03-19T12:42:38;101507.19;;;16.42
49593;BMP280;35499;51.482;4.264;2023-03-19T12:45:15;101503.13;;;16.32
49593;BMP280;35499;51.482;4.264;2023-03-19T12:47:44;101498.41;;;16.14
49593;BMP280;35499;51.482;4.264;2023-03-19T12:50:12;101520.88;;;16.14
49593;BMP280;35499;51.482;4.264;2023-03-19T12:52:48;101512.22;;;16.15
49593;BMP280;35499;51.482;4.264;2023-03-19T12:58:21;101521.78;;;16.75
49593;BMP280;35499;51.482;4.264;2023-03-19T13:01:22;101519.25;;;17.30
49593;BMP280;35499;51.482;4.264;2023-03-19T13:04:05;101521.28;;;17.74
49593;BMP280;35499;51.482;4.264;2023-03-19T13:06:46;101530.59;;;17.83
49593;BMP280;35499;51.482;4.264;2023-03-19T13:11:54;101526.47;;;17.21
49593;BMP280;35499;51.482;4.264;2023-03-19T13:17:33;101534.75;;;16.75
49593;BMP280;35499;51.482;4.264;2023-03-19T13:20:06;101548.88;;;16.95
49593;BMP280;35499;51.482;4.264;2023-03-19T13:22:38;101543.28;;;16.79
49593;BMP280;35499;51.482;4.264;2023-03-19T13:25:08;101541.63;;;16.47
49593;BMP280;35499;51.482;4.264;2023-03-19T13:27:39;101541.81;;;16.39
49593;BMP280;35499;51.482;4.264;2023-03-19T13:32:39;101548.97;;;17.49
49593;BMP280;35499;51.482;4.264;2023-03-19T13:38:01;101536.91;;;18.25
49593;BMP280;35499;51.482;4.264;2023-03-19T13:40:48;101532.47;;;18.52
49593;BMP280;35499;51.482;4.264;2023-03-19T13:48:35;101543.97;;;18.45
49593;BMP280;35499;51.482;4.264;2023-03-19T13:51:22;101558.94;;;18.39
49593;BMP280;35499;51.482;4.264;2023-03-19T13:59:32;101573.53;;;16.80
49593;BMP280;35499;51.482;4.264;2023-03-19T14:01:59;101585.75;;;16.12
49593;BMP280;35499;51.482;4.264;2023-03-19T14:04:30;101591.13;;;15.30
49593;BMP280;35499;51.482;4.264;2023-03-19T14:07:20;101615.03;;;14.55
49593;BMP280;35499;51.482;4.264;2023-03-19T14:09:50;101614.75;;;14.22
49593;BMP280;35499;51.482;4.264;2023-03-19T14:12:39;101623.16;;;13.83
49593;BMP280;35499;51.482;4.264;2023-03-19T14:25:25;101624.63;;;12.68
49593;BMP280;35499;51.482;4.264;2023-03-19T14:27:56;101633.41;;;12.42
49593;BMP280;35499;51.482;4.264;2023-03-19T14:30:33;101634.50;;;12.19
49593;BMP280;35499;51.482;4.264;2023-03-19T14:33:04;101626.03;;;12.01
49593;BMP280;35499;51.482;4.264;2023-03-19T14:35:38;101632.16;;;11.90
49593;BMP280;35499;51.482;4.264;2023-03-19T14:38:10;101637.38;;;11.77
49593;BMP280;35499;51.482;4.264;2023-03-19T14:40:43;101640.88;;;11.67
49593;BMP280;35499;51.482;4.264;2023-03-19T14:43:33;101647.81;;;11.55
49593;BMP280;35499;51.482;4.264;2023-03-19T14:46:03;101653.84;;;11.48
49593;BMP280;35499;51.482;4.264;2023-03-19T14:49:03;101653.88;;;11.45
49593;BMP280;35499;51.482;4.264;2023-03-19T14:52:03;101648.75;;;11.36
49593;BMP280;35499;51.482;4.264;2023-03-19T14:54:39;101650.47;;;11.37
49593;BMP280;35499;51.482;4.264;2023-03-19T14:57:07;101641.00;;;11.44
49593;BMP280;35499;51.482;4.264;2023-03-19T14:59:39;101648.66;;;11.51
49593;BMP280;35499;51.482;4.264;2023-03-19T15:02:09;101645.28;;;11.49
49593;BMP280;35499;51.482;4.264;2023-03-19T15:04:43;101653.00;;;11.47
49593;BMP280;35499;51.482;4.264;2023-03-19T15:07:17;101652.16;;;11.41
49593;BMP280;35499;51.482;4.264;2023-03-19T15:09:44;101650.50;;;11.34
49593;BMP280;35499;51.482;4.264;2023-03-19T15:17:35;101676.19;;;11.31
49593;BMP280;35499;51.482;4.264;2023-03-19T15:20:16;101678.78;;;11.26
49593;BMP280;35499;51.482;4.264;2023-03-19T15:22:42;101673.66;;;11.18
49593;BMP280;35499;51.482;4.264;2023-03-19T15:25:13;101682.22;;;11.16
49593;BMP280;35499;51.482;4.264;2023-03-19T15:27:39;101669.38;;;11.13
49593;BMP280;35499;51.482;4.264;2023-03-19T15:30:20;101670.25;;;11.15
49593;BMP280;35499;51.482;4.264;2023-03-19T15:32:45;101679.66;;;11.13
49593;BMP280;35499;51.482;4.264;2023-03-19T15:35:11;101682.25;;;11.13
49593;BMP280;35499;51.482;4.264;2023-03-19T15:37:40;101678.81;;;11.14
49593;BMP280;35499;51.482;4.264;2023-03-19T15:40:09;101682.22;;;11.19
49593;BMP280;35499;51.482;4.264;2023-03-19T15:42:36;101672.78;;;11.22
49593;BMP280;35499;51.482;4.264;2023-03-19T15:45:07;101680.53;;;11.21
49593;BMP280;35499;51.482;4.264;2023-03-19T15:47:35;101678.81;;;11.12
49593;BMP280;35499;51.482;4.264;2023-03-19T15:50:15;101672.84;;;11.08
49593;BMP280;35499;51.482;4.264;2023-03-19T15:52:53;101689.13;;;11.04